createdAt,value
2023-05-10T00:01:29.839Z,13.84
2023-05-10T00:03:56.224Z,13.85
2023-05-10T00:06:22.904Z,13.74
2023-05-10T00:08:49.204Z,13.86
2023-05-10T00:11:15.668Z,13.77
2023-05-10T00:13:42.018Z,13.74
2023-05-10T00:16:08.436Z,13.70
2023-05-10T00:18:34.936Z,13.67
2023-05-10T00:21:01.375Z,13.63
2023-05-10T00:23:27.692Z,13.61
2023-05-10T00:25:54.040Z,13.51
2023-05-10T00:28:20.421Z,13.68
2023-05-10T00:30:46.708Z,13.60
2023-05-10T00:33:13.389Z,13.63
2023-05-10T00:35:39.697Z,13.61
2023-05-10T00:38:06.046Z,13.59
2023-05-10T00:40:32.439Z,13.50
2023-05-10T00:43:04.065Z,13.56
2023-05-10T00:45:34.231Z,13.63
2023-05-10T00:48:03.161Z,13.60
2023-05-10T00:50:29.767Z,13.59
2023-05-10T00:52:56.230Z,13.55
2023-05-10T00:55:22.707Z,13.63
2023-05-10T00:57:49.092Z,13.62
2023-05-10T01:00:19.031Z,13.53
2023-05-10T01:02:47.241Z,13.52
2023-05-10T01:05:14.459Z,13.55
2023-05-10T01:07:40.932Z,13.59
2023-05-10T01:10:08.585Z,13.61
2023-05-10T01:12:39.132Z,13.58
2023-05-10T01:15:08.328Z,13.67
2023-05-10T01:17:38.645Z,13.54
2023-05-10T01:20:08.979Z,13.52
2023-05-10T01:22:57.018Z,13.48
2023-05-10T01:25:47.577Z,13.49
2023-05-10T01:28:35.743Z,13.49
2023-05-10T01:31:26.505Z,13.44
2023-05-10T01:34:07.243Z,13.48
2023-05-10T01:36:46.246Z,13.48
2023-05-10T01:39:21.674Z,13.47
2023-05-10T01:42:08.104Z,13.42
2023-05-10T01:44:39.540Z,13.41
2023-05-10T01:47:16.582Z,13.38
2023-05-10T01:49:48.499Z,13.35
2023-05-10T01:52:20.116Z,13.45
2023-05-10T01:54:54.937Z,13.40
2023-05-10T01:57:25.682Z,13.55
2023-05-10T01:59:53.053Z,13.52
2023-05-10T02:02:25.050Z,13.44
2023-05-10T02:04:53.860Z,13.42
2023-05-10T02:07:22.302Z,13.37
2023-05-10T02:09:48.904Z,13.40
2023-05-10T02:12:16.953Z,13.34
2023-05-10T02:14:44.239Z,13.41
2023-05-10T02:17:11.747Z,13.23
2023-05-10T02:19:41.919Z,13.34
2023-05-10T02:22:09.811Z,13.42
2023-05-10T02:24:38.118Z,13.39
2023-05-10T02:27:04.963Z,13.46
2023-05-10T02:29:33.264Z,13.33
2023-05-10T02:32:00.630Z,13.34
2023-05-10T02:34:28.428Z,13.26
2023-05-10T02:36:55.896Z,13.32
2023-05-10T02:39:23.027Z,13.27
2023-05-10T02:41:50.940Z,13.32
2023-05-10T02:44:20.228Z,13.30
2023-05-10T02:46:47.785Z,13.25
2023-05-10T02:49:14.317Z,13.23
2023-05-10T02:51:51.602Z,13.20
2023-05-10T02:54:25.503Z,13.18
2023-05-10T02:56:57.180Z,13.21
2023-05-10T02:59:23.627Z,13.19
2023-05-10T03:01:50.117Z,13.19
2023-05-10T03:04:16.667Z,13.21
2023-05-10T03:06:43.343Z,13.29
2023-05-10T03:09:11.930Z,13.18
2023-05-10T03:12:09.567Z,13.19
2023-05-10T03:14:57.836Z,13.26
2023-05-10T03:17:37.519Z,13.25
2023-05-10T03:20:11.202Z,13.32
2023-05-10T03:22:41.837Z,13.22
2023-05-10T03:25:11.708Z,13.11
2023-05-10T03:27:44.251Z,13.29
2023-05-10T03:30:12.933Z,13.32
2023-05-10T03:32:39.939Z,13.31
2023-05-10T03:35:12.877Z,13.33
2023-05-10T03:37:39.976Z,13.29
2023-05-10T03:40:07.513Z,13.31
2023-05-10T03:42:36.704Z,13.30
2023-05-10T03:45:03.284Z,13.28
2023-05-10T03:47:30.632Z,13.22
2023-05-10T03:49:58.404Z,13.17
2023-05-10T03:52:24.747Z,13.19
2023-05-10T03:54:51.226Z,13.02
2023-05-10T03:57:17.804Z,13.14
2023-05-10T03:59:44.335Z,13.19
2023-05-10T04:02:10.712Z,13.07
2023-05-10T04:04:37.165Z,13.03
2023-05-10T04:07:03.831Z,13.26
2023-05-10T04:09:30.260Z,13.28
2023-05-10T04:11:56.820Z,13.31
2023-05-10T04:14:23.177Z,13.27
2023-05-10T04:16:49.569Z,13.21
2023-05-10T04:19:15.884Z,13.17
2023-05-10T04:21:42.238Z,13.27
2023-05-10T04:24:08.574Z,13.23
2023-05-10T04:26:34.903Z,13.10
2023-05-10T04:29:01.191Z,13.16
2023-05-10T04:31:28.742Z,13.24
2023-05-10T04:33:55.243Z,13.28
2023-05-10T04:36:21.632Z,13.33
2023-05-10T04:38:48.084Z,13.28
2023-05-10T04:41:14.406Z,13.32
2023-05-10T04:43:40.776Z,13.32
2023-05-10T04:46:08.125Z,13.23
2023-05-10T04:48:34.651Z,13.17
2023-05-10T04:51:01.072Z,13.22
2023-05-10T04:53:27.517Z,13.24
2023-05-10T04:55:53.914Z,13.23
2023-05-10T04:58:20.232Z,13.23
2023-05-10T05:00:46.688Z,13.23
2023-05-10T05:03:13.185Z,13.30
2023-05-10T05:05:39.597Z,13.34
2023-05-10T05:08:05.964Z,13.32
2023-05-10T05:10:32.550Z,13.32
2023-05-10T05:12:58.911Z,13.35
2023-05-10T05:15:25.300Z,13.31
2023-05-10T05:17:51.668Z,13.38
2023-05-10T05:20:19.839Z,13.41
2023-05-10T05:22:46.199Z,13.41
2023-05-10T05:25:12.710Z,13.48
2023-05-10T05:27:39.030Z,13.37
2023-05-10T05:30:06.056Z,13.40
2023-05-10T05:32:32.442Z,13.40
2023-05-10T05:34:59.005Z,13.45
2023-05-10T05:37:25.347Z,13.43
2023-05-10T05:39:52.016Z,13.40
2023-05-10T05:42:19.544Z,13.27
2023-05-10T05:44:45.896Z,13.33
2023-05-10T05:47:12.203Z,13.42
2023-05-10T05:49:38.525Z,13.33
2023-05-10T05:52:05.429Z,13.37
2023-05-10T05:54:32.553Z,13.41
2023-05-10T05:57:01.082Z,13.53
2023-05-10T05:59:28.023Z,13.54
2023-05-10T06:01:55.393Z,13.56
2023-05-10T06:04:21.862Z,13.55
2023-05-10T06:06:48.282Z,13.61
2023-05-10T06:09:14.587Z,13.75
2023-05-10T06:11:41.082Z,13.73
2023-05-10T06:14:08.647Z,13.82
2023-05-10T06:16:35.821Z,13.86
2023-05-10T06:19:03.300Z,13.89
2023-05-10T06:21:29.786Z,13.78
2023-05-10T06:23:56.238Z,13.83
2023-05-10T06:26:22.530Z,13.86
2023-05-10T06:28:48.943Z,13.83
2023-05-10T06:31:15.330Z,13.86
2023-05-10T06:33:41.681Z,13.94
2023-05-10T06:36:08.160Z,13.95
2023-05-10T06:38:34.524Z,13.96
2023-05-10T06:41:01.516Z,13.99
2023-05-10T06:43:29.515Z,14.01
2023-05-10T06:45:55.824Z,14.05
2023-05-10T06:48:22.305Z,14.05
2023-05-10T06:50:48.703Z,14.04
2023-05-10T06:53:15.039Z,14.08
2023-05-10T06:55:41.333Z,14.07
2023-05-10T06:58:07.726Z,14.08
2023-05-10T07:00:34.125Z,14.12
2023-05-10T07:03:00.486Z,14.18
2023-05-10T07:05:28.838Z,14.19
2023-05-10T07:07:55.439Z,14.21
2023-05-10T07:10:21.789Z,14.22
2023-05-10T07:12:48.234Z,14.22
2023-05-10T07:15:14.795Z,14.23
2023-05-10T07:17:43.252Z,14.32
2023-05-10T07:20:11.584Z,14.26
2023-05-10T07:22:38.008Z,14.26
2023-05-10T07:25:04.605Z,14.29
2023-05-10T07:27:31.216Z,14.22
2023-05-10T07:29:57.581Z,14.30
2023-05-10T07:32:24.284Z,14.39
2023-05-10T07:34:50.736Z,14.41
2023-05-10T07:37:17.067Z,14.47
2023-05-10T07:39:43.397Z,14.52
2023-05-10T07:42:09.815Z,14.44
2023-05-10T07:44:36.243Z,14.52
2023-05-10T07:47:02.552Z,14.48
2023-05-10T07:49:28.853Z,14.39
2023-05-10T07:51:55.171Z,14.35
2023-05-10T07:54:21.515Z,14.38
2023-05-10T07:56:48.128Z,14.31
2023-05-10T07:59:18.315Z,14.34
2023-05-10T08:01:44.875Z,14.32
2023-05-10T08:04:11.316Z,14.32
2023-05-10T08:06:37.937Z,14.27
2023-05-10T08:09:04.267Z,14.30
2023-05-10T08:11:30.859Z,14.27
2023-05-10T08:13:57.536Z,14.32
2023-05-10T08:16:24.048Z,14.37
2023-05-10T08:18:51.555Z,14.38
2023-05-10T08:21:18.185Z,14.34
2023-05-10T08:23:45.075Z,14.43
2023-05-10T08:26:12.236Z,14.46
2023-05-10T08:28:38.661Z,14.51
2023-05-10T08:31:05.898Z,14.55
2023-05-10T08:33:32.272Z,14.54
2023-05-10T08:35:58.614Z,14.57
2023-05-10T08:38:25.637Z,14.62
2023-05-10T08:40:57.328Z,14.68
2023-05-10T08:43:27.982Z,14.66
2023-05-10T08:45:55.625Z,14.78
2023-05-10T08:48:25.336Z,14.88
2023-05-10T08:50:57.395Z,15.05
2023-05-10T08:53:27.417Z,15.14
2023-05-10T08:55:54.283Z,15.19
2023-05-10T08:58:21.211Z,15.30
2023-05-10T09:00:52.318Z,15.44
2023-05-10T09:03:19.235Z,15.62
2023-05-10T09:05:46.033Z,15.83
2023-05-10T09:08:13.789Z,15.72
2023-05-10T09:10:41.180Z,15.75
2023-05-10T09:13:09.962Z,15.68
2023-05-10T09:15:36.420Z,15.59
2023-05-10T09:18:03.383Z,15.62
2023-05-10T09:20:29.855Z,15.57
2023-05-10T09:22:56.262Z,15.45
2023-05-10T09:25:23.513Z,15.42
2023-05-10T09:27:49.933Z,15.45
2023-05-10T09:30:30.181Z,15.50
2023-05-10T09:32:58.352Z,15.39
2023-05-10T09:35:29.667Z,15.42
2023-05-10T09:37:58.525Z,15.28
2023-05-10T09:40:26.523Z,15.41
2023-05-10T09:42:56.465Z,15.58
2023-05-10T09:45:24.338Z,15.63
2023-05-10T09:47:50.861Z,15.65
2023-05-10T09:50:17.703Z,15.62
2023-05-10T09:52:48.223Z,15.61
2023-05-10T09:55:15.018Z,15.69
2023-05-10T09:57:41.897Z,15.74
2023-05-10T10:00:10.938Z,15.58
2023-05-10T10:02:40.493Z,15.71
2023-05-10T10:05:08.190Z,15.65
2023-05-10T10:07:35.680Z,15.52
2023-05-10T10:10:03.012Z,15.40
2023-05-10T10:12:29.541Z,15.43
2023-05-10T10:14:56.456Z,15.40
2023-05-10T10:17:22.796Z,15.40
2023-05-10T10:19:49.381Z,15.38
2023-05-10T10:22:15.867Z,15.39
2023-05-10T10:24:42.496Z,15.44
2023-05-10T10:27:21.069Z,15.55
2023-05-10T10:30:05.063Z,15.51
2023-05-10T10:32:57.633Z,15.49
2023-05-10T10:35:24.077Z,15.54
2023-05-10T10:37:51.877Z,15.66
2023-05-10T10:40:33.662Z,15.78
2023-05-10T10:43:33.368Z,15.73
2023-05-10T10:46:18.104Z,15.70
2023-05-10T10:49:08.690Z,15.55
2023-05-10T10:51:38.963Z,15.62
2023-05-10T10:54:12.100Z,15.59
2023-05-10T10:56:38.852Z,15.58
2023-05-10T10:59:05.441Z,15.45
2023-05-10T11:01:36.113Z,15.48
2023-05-10T11:04:18.078Z,15.58
2023-05-10T11:06:44.547Z,15.69
2023-05-10T11:09:13.432Z,15.84
2023-05-10T11:11:51.962Z,15.86
2023-05-10T11:14:22.812Z,16.01
2023-05-10T11:16:49.228Z,16.03
2023-05-10T11:19:23.450Z,16.10
2023-05-10T11:21:52.142Z,16.16
2023-05-10T11:24:20.778Z,16.20
2023-05-10T11:26:50.914Z,16.22
2023-05-10T11:29:17.718Z,16.20
2023-05-10T11:31:47.886Z,16.40
2023-05-10T11:34:28.029Z,16.47
2023-05-10T11:36:55.924Z,16.55
2023-05-10T11:39:26.039Z,16.50
2023-05-10T11:41:52.448Z,16.51
2023-05-10T11:44:18.813Z,16.50
2023-05-10T11:46:45.283Z,16.54
2023-05-10T11:49:11.790Z,16.42
2023-05-10T11:51:38.257Z,16.38
2023-05-10T11:54:10.337Z,16.50
2023-05-10T11:56:38.566Z,16.54
2023-05-10T11:59:04.901Z,16.51
2023-05-10T12:01:31.568Z,16.55
2023-05-10T12:04:02.004Z,16.60
2023-05-10T12:06:30.324Z,16.62
2023-05-10T12:08:56.833Z,16.78
2023-05-10T12:11:26.787Z,16.88
2023-05-10T12:13:54.018Z,17.03
2023-05-10T12:16:22.227Z,17.29
2023-05-10T12:18:52.860Z,17.52
2023-05-10T12:21:20.877Z,17.89
2023-05-10T12:23:49.254Z,18.47
2023-05-10T12:26:15.770Z,18.54
2023-05-10T12:28:42.123Z,18.74
2023-05-10T12:31:08.651Z,18.82
2023-05-10T12:33:39.888Z,18.58
2023-05-10T12:36:07.515Z,18.32
2023-05-10T12:38:35.193Z,18.16
2023-05-10T12:41:03.867Z,18.12
2023-05-10T12:43:31.153Z,17.88
2023-05-10T12:45:57.617Z,17.76
2023-05-10T12:48:23.962Z,17.79
2023-05-10T12:50:51.072Z,17.68
2023-05-10T12:53:17.727Z,17.60
2023-05-10T12:55:44.929Z,17.45
2023-05-10T12:58:13.894Z,17.14
2023-05-10T13:00:44.725Z,17.07
2023-05-10T13:03:11.462Z,16.83
2023-05-10T13:05:38.026Z,16.72
2023-05-10T13:08:04.587Z,16.61
2023-05-10T13:10:31.673Z,16.60
2023-05-10T13:12:59.216Z,16.53
2023-05-10T13:15:26.209Z,16.49
2023-05-10T13:17:53.885Z,16.34
2023-05-10T13:20:20.401Z,16.32
2023-05-10T13:22:47.163Z,16.31
2023-05-10T13:25:13.874Z,16.34
2023-05-10T13:27:41.356Z,16.34
2023-05-10T13:30:08.946Z,16.31
2023-05-10T13:32:35.728Z,16.41
2023-05-10T13:35:04.047Z,16.47
2023-05-10T13:37:31.221Z,16.39
2023-05-10T13:39:57.575Z,16.34
2023-05-10T13:42:24.430Z,16.41
2023-05-10T13:44:51.447Z,16.42
2023-05-10T13:47:17.767Z,16.36
2023-05-10T13:49:44.082Z,16.40
2023-05-10T13:52:10.918Z,16.41
2023-05-10T13:54:37.977Z,16.49
2023-05-10T13:57:05.299Z,16.45
2023-05-10T13:59:34.753Z,16.49
2023-05-10T14:02:03.370Z,16.51
2023-05-10T14:04:30.526Z,16.49
2023-05-10T14:06:56.998Z,16.55
2023-05-10T14:09:23.282Z,16.56
2023-05-10T14:11:49.666Z,16.60
2023-05-10T14:14:16.013Z,16.67
2023-05-10T14:16:45.873Z,16.69
2023-05-10T14:19:12.952Z,16.67
2023-05-10T14:21:39.369Z,16.64
2023-05-10T14:24:30.465Z,16.70
2023-05-10T14:26:56.736Z,16.68
2023-05-10T14:29:23.118Z,16.71
2023-05-10T14:31:49.525Z,16.64
2023-05-10T14:34:16.172Z,16.69
2023-05-10T14:36:42.463Z,16.60
2023-05-10T14:39:10.720Z,16.63
2023-05-10T14:41:37.140Z,16.67
2023-05-10T14:44:04.270Z,16.74
2023-05-10T14:46:30.839Z,16.81
2023-05-10T14:48:57.209Z,16.84
2023-05-10T14:51:23.552Z,16.83
2023-05-10T14:53:52.834Z,16.81
2023-05-10T14:56:19.452Z,16.84
2023-05-10T14:58:45.775Z,16.80
2023-05-10T15:01:12.138Z,16.79
2023-05-10T15:03:38.910Z,16.80
2023-05-10T15:06:06.914Z,16.75
2023-05-10T15:08:33.335Z,16.75
2023-05-10T15:10:59.634Z,16.81
2023-05-10T15:13:26.184Z,16.88
2023-05-10T15:15:52.670Z,16.90
2023-05-10T15:18:19.095Z,16.88
2023-05-10T15:20:46.488Z,16.83
2023-05-10T15:23:13.362Z,16.87
2023-05-10T15:25:40.306Z,16.85
2023-05-10T15:28:06.662Z,16.83
2023-05-10T15:30:33.047Z,16.85
2023-05-10T15:32:59.744Z,16.90
2023-05-10T15:35:27.669Z,16.83
2023-05-10T15:37:54.018Z,16.87
2023-05-10T15:40:20.428Z,16.83
2023-05-10T15:42:46.742Z,16.73
2023-05-10T15:45:13.538Z,16.78
2023-05-10T15:47:42.802Z,16.81
2023-05-10T15:50:09.832Z,16.76
2023-05-10T15:52:36.998Z,16.81
2023-05-10T15:55:04.018Z,16.77
2023-05-10T15:57:30.374Z,16.72
2023-05-10T15:59:56.733Z,16.67
2023-05-10T16:02:23.530Z,16.68
2023-05-10T16:04:49.967Z,16.68
2023-05-10T16:07:16.292Z,16.73
2023-05-10T16:09:42.633Z,16.74
2023-05-10T16:12:09.041Z,16.75
2023-05-10T16:14:35.385Z,16.75
2023-05-10T16:17:05.110Z,16.77
2023-05-10T16:19:31.821Z,16.79
2023-05-10T16:21:58.270Z,16.78
2023-05-10T16:24:25.756Z,16.74
2023-05-10T16:26:52.149Z,16.66
2023-05-10T16:29:18.518Z,16.66
2023-05-10T16:31:44.895Z,16.60
2023-05-10T16:34:11.207Z,16.60
2023-05-10T16:36:37.620Z,16.54
2023-05-10T16:39:04.117Z,16.49
2023-05-10T16:41:34.329Z,16.49
2023-05-10T16:44:01.321Z,16.49
2023-05-10T16:46:27.628Z,16.42
2023-05-10T16:48:54.128Z,16.38
2023-05-10T16:51:20.428Z,16.35
2023-05-10T16:53:46.811Z,16.34
2023-05-10T16:56:13.142Z,16.33
2023-05-10T16:58:39.496Z,16.26
2023-05-10T17:01:06.048Z,16.18
2023-05-10T17:03:32.490Z,16.14
2023-05-10T17:05:58.948Z,16.11
2023-05-10T17:08:25.402Z,16.06
2023-05-10T17:10:51.703Z,16.05
2023-05-10T17:13:18.556Z,15.93
2023-05-10T17:15:47.191Z,15.94
2023-05-10T17:18:13.597Z,15.90
2023-05-10T17:20:39.960Z,15.85
2023-05-10T17:23:06.350Z,15.88
2023-05-10T17:25:35.128Z,15.73
2023-05-10T17:28:01.498Z,15.70
2023-05-10T17:30:28.753Z,15.62
2023-05-10T17:32:55.245Z,15.62
2023-05-10T17:35:21.588Z,15.55
2023-05-10T17:37:48.017Z,15.45
2023-05-10T17:40:14.552Z,15.39
2023-05-10T17:42:40.883Z,15.27
2023-05-10T17:45:07.820Z,15.32
2023-05-10T17:47:34.307Z,15.24
2023-05-10T17:50:00.806Z,15.13
2023-05-10T17:52:28.745Z,15.10
2023-05-10T17:54:56.184Z,15.00
2023-05-10T17:57:24.203Z,14.94
2023-05-10T17:59:51.103Z,14.87
2023-05-10T18:02:17.441Z,14.89
2023-05-10T18:04:43.791Z,14.82
2023-05-10T18:07:10.207Z,14.86
2023-05-10T18:09:36.518Z,14.83
2023-05-10T18:12:03.142Z,14.82
2023-05-10T18:14:39.840Z,14.92
2023-05-10T18:17:08.169Z,14.84
2023-05-10T18:19:34.600Z,14.84
2023-05-10T18:22:00.978Z,14.81
2023-05-10T18:24:38.475Z,14.83
2023-05-10T18:27:06.712Z,14.78
2023-05-10T18:29:33.177Z,14.80
2023-05-10T18:31:59.638Z,14.84
2023-05-10T18:34:26.221Z,14.83
2023-05-10T18:36:52.846Z,14.79
2023-05-10T18:39:19.446Z,14.81
2023-05-10T18:41:45.891Z,14.69
2023-05-10T18:44:12.252Z,14.70
2023-05-10T18:46:38.837Z,14.75
2023-05-10T18:49:06.347Z,14.58
2023-05-10T18:51:32.702Z,14.63
2023-05-10T18:53:59.082Z,14.75
2023-05-10T18:56:25.445Z,14.67
2023-05-10T18:58:52.224Z,14.68
2023-05-10T19:01:18.527Z,14.67
2023-05-10T19:03:44.891Z,14.59
2023-05-10T19:06:11.424Z,14.49
2023-05-10T19:08:37.767Z,14.48
2023-05-10T19:11:04.054Z,14.52
2023-05-10T19:13:30.417Z,14.42
2023-05-10T19:16:05.551Z,14.45
2023-05-10T19:18:33.146Z,14.39
2023-05-10T19:21:03.510Z,14.43
2023-05-10T19:23:32.846Z,14.19
2023-05-10T19:25:59.342Z,14.18
2023-05-10T19:28:26.243Z,14.35
2023-05-10T19:30:52.905Z,14.36
2023-05-10T19:33:19.605Z,14.27
2023-05-10T19:35:45.990Z,14.19
2023-05-10T19:38:12.289Z,14.24
2023-05-10T19:40:38.590Z,14.24
2023-05-10T19:43:04.965Z,14.33
2023-05-10T19:45:31.277Z,14.17
2023-05-10T19:47:57.680Z,14.14
2023-05-10T19:50:24.036Z,14.04
2023-05-10T19:52:50.441Z,14.09
2023-05-10T19:55:26.632Z,13.94
2023-05-10T19:57:52.958Z,13.95
2023-05-10T20:00:19.530Z,13.86
2023-05-10T20:02:45.859Z,13.83
2023-05-10T20:05:12.197Z,13.83
2023-05-10T20:07:38.656Z,13.88
2023-05-10T20:10:05.289Z,13.98
2023-05-10T20:12:31.625Z,14.02
2023-05-10T20:14:57.939Z,13.95
2023-05-10T20:17:24.314Z,13.99
2023-05-10T20:19:50.694Z,13.82
2023-05-10T20:22:16.991Z,13.79
2023-05-10T20:24:43.654Z,13.75
2023-05-10T20:27:09.962Z,13.88
2023-05-10T20:29:36.524Z,13.82
2023-05-10T20:32:02.828Z,13.85
2023-05-10T20:34:29.214Z,13.73
2023-05-10T20:36:55.510Z,13.58
2023-05-10T20:39:21.796Z,13.59
2023-05-10T20:41:48.470Z,13.47
2023-05-10T20:44:14.841Z,13.45
2023-05-10T20:46:41.454Z,13.39
2023-05-10T20:49:08.528Z,13.53
2023-05-10T20:51:34.940Z,13.52
2023-05-10T20:54:04.350Z,13.37
2023-05-10T20:56:31.134Z,13.30
2023-05-10T20:58:57.512Z,13.25
2023-05-10T21:01:23.859Z,13.24
2023-05-10T21:03:50.242Z,13.25
2023-05-10T21:06:16.549Z,13.18
2023-05-10T21:08:42.872Z,13.04
2023-05-10T21:11:09.228Z,13.05
2023-05-10T21:13:35.621Z,13.15
2023-05-10T21:16:01.969Z,12.94
2023-05-10T21:18:28.499Z,12.75
2023-05-10T21:20:54.940Z,12.67
2023-05-10T21:23:21.301Z,12.65
2023-05-10T21:25:47.712Z,12.68
2023-05-10T21:28:14.108Z,12.84
2023-05-10T21:30:40.443Z,12.78
2023-05-10T21:33:06.982Z,12.88
2023-05-10T21:35:33.382Z,12.82
2023-05-10T21:37:59.726Z,12.75
2023-05-10T21:40:26.162Z,12.64
2023-05-10T21:42:52.527Z,12.53
2023-05-10T21:45:20.077Z,12.51
2023-05-10T21:47:46.470Z,12.49
2023-05-10T21:50:12.888Z,12.55
2023-05-10T21:52:39.301Z,12.31
2023-05-10T21:55:06.218Z,12.39
2023-05-10T21:57:32.602Z,12.48
2023-05-10T21:59:58.912Z,12.59
2023-05-10T22:02:25.564Z,12.41
2023-05-10T22:04:51.911Z,12.43
2023-05-10T22:07:18.307Z,12.45
2023-05-10T22:09:44.652Z,12.43
2023-05-10T22:12:11.921Z,12.40
2023-05-10T22:14:38.316Z,12.25
2023-05-10T22:17:04.690Z,12.21
2023-05-10T22:19:31.162Z,12.19
2023-05-10T22:21:57.444Z,12.23
2023-05-10T22:24:23.786Z,12.39
2023-05-10T22:26:50.089Z,12.53
2023-05-10T22:29:16.819Z,12.54
2023-05-10T22:31:43.139Z,12.57
2023-05-10T22:34:09.496Z,12.51
2023-05-10T22:36:36.220Z,12.67
2023-05-10T22:39:02.560Z,12.57
2023-05-10T22:41:28.859Z,12.58
2023-05-10T22:43:55.332Z,12.57
2023-05-10T22:46:21.774Z,12.64
2023-05-10T22:48:48.341Z,12.56
2023-05-10T22:51:14.631Z,12.61
2023-05-10T22:53:41.218Z,12.48
2023-05-10T22:56:07.531Z,12.43
2023-05-10T22:58:34.240Z,12.56
2023-05-10T23:01:00.606Z,12.61
2023-05-10T23:03:26.983Z,12.50
2023-05-10T23:05:53.287Z,12.51
2023-05-10T23:08:19.627Z,12.54
2023-05-10T23:10:46.302Z,12.47
2023-05-10T23:13:13.429Z,12.47
2023-05-10T23:15:40.237Z,12.47
2023-05-10T23:18:06.718Z,12.35
2023-05-10T23:20:33.212Z,12.39
2023-05-10T23:22:59.528Z,12.34
2023-05-10T23:25:25.990Z,12.32
2023-05-10T23:27:52.324Z,12.33
2023-05-10T23:30:18.862Z,12.26
2023-05-10T23:32:45.440Z,12.35
2023-05-10T23:35:11.775Z,12.36
2023-05-10T23:37:38.140Z,12.31
2023-05-10T23:40:05.085Z,12.51
2023-05-10T23:42:32.452Z,12.43
2023-05-10T23:44:58.759Z,12.51
2023-05-10T23:47:25.102Z,12.62
2023-05-10T23:49:51.529Z,12.52
2023-05-10T23:52:17.859Z,12.53
2023-05-10T23:54:45.850Z,12.40
2023-05-10T23:57:12.295Z,12.40
2023-05-10T23:59:38.578Z,12.46
